createdAt,value
2018-12-18T00:00:32.175Z,0
2018-12-18T00:01:34.310Z,0
2018-12-18T00:02:36.435Z,0
2018-12-18T00:03:39.369Z,0
2018-12-18T00:04:41.632Z,0
2018-12-18T00:05:43.733Z,0
2018-12-18T00:06:45.838Z,0
2018-12-18T00:07:47.972Z,0
2018-12-18T00:08:50.073Z,0
2018-12-18T00:09:53.359Z,0
2018-12-18T00:10:58.158Z,0
2018-12-18T00:12:00.254Z,0
2018-12-18T00:13:02.383Z,0
2018-12-18T00:14:04.771Z,0
2018-12-18T00:15:06.890Z,0
2018-12-18T00:16:09.672Z,0
2018-12-18T00:17:12.082Z,0
2018-12-18T00:18:14.185Z,0
2018-12-18T00:19:16.289Z,0
2018-12-18T00:20:18.421Z,0
2018-12-18T00:21:20.524Z,0
2018-12-18T00:22:22.689Z,0
2018-12-18T00:23:24.797Z,0
2018-12-18T00:24:26.932Z,0
2018-12-18T00:25:29.330Z,0
2018-12-18T00:26:31.453Z,0
2018-12-18T00:27:33.550Z,0
2018-12-18T00:28:35.671Z,0
2018-12-18T00:29:37.797Z,0
2018-12-18T00:30:39.903Z,0
2018-12-18T00:31:42.137Z,0
2018-12-18T00:32:44.541Z,0
2018-12-18T00:33:46.868Z,0
2018-12-18T00:34:49.068Z,0
2018-12-18T00:35:51.180Z,0
2018-12-18T00:36:53.285Z,0
2018-12-18T00:37:55.391Z,0
2018-12-18T00:38:57.509Z,0
2018-12-18T00:40:00.002Z,0
2018-12-18T00:41:02.389Z,0
2018-12-18T00:42:04.521Z,0
2018-12-18T00:43:06.913Z,0
2018-12-18T00:44:09.039Z,0
2018-12-18T00:45:11.141Z,0
2018-12-18T00:46:13.275Z,0
2018-12-18T00:47:15.380Z,0
2018-12-18T00:48:17.491Z,0
2018-12-18T00:49:19.640Z,0
2018-12-18T00:50:21.769Z,0
2018-12-18T00:51:23.862Z,0
2018-12-18T00:52:25.981Z,0
2018-12-18T00:53:28.405Z,0
2018-12-18T00:54:30.501Z,0
2018-12-18T00:55:32.971Z,0
2018-12-18T00:56:35.075Z,0
2018-12-18T00:57:37.185Z,0
2018-12-18T00:58:39.282Z,0
2018-12-18T00:59:41.403Z,0
2018-12-18T01:00:43.896Z,0
2018-12-18T01:01:46.283Z,0
2018-12-18T01:02:48.451Z,0
2018-12-18T01:03:52.857Z,0
2018-12-18T01:04:55.159Z,0
2018-12-18T01:05:57.286Z,0
2018-12-18T01:06:59.399Z,0
2018-12-18T01:08:01.506Z,0
2018-12-18T01:09:03.642Z,0
2018-12-18T01:10:06.049Z,0
2018-12-18T01:11:08.161Z,0
2018-12-18T01:12:10.286Z,0
2018-12-18T01:13:12.397Z,0
2018-12-18T01:14:14.571Z,0
2018-12-18T01:15:16.692Z,0
2018-12-18T01:16:18.806Z,0
2018-12-18T01:17:20.920Z,0
2018-12-18T01:18:23.043Z,0
2018-12-18T01:19:25.134Z,0
2018-12-18T01:20:27.256Z,0
2018-12-18T01:21:29.368Z,0
2018-12-18T01:22:31.489Z,0
2018-12-18T01:23:33.903Z,0
2018-12-18T01:24:36.006Z,0
2018-12-18T01:25:38.122Z,0
2018-12-18T01:26:40.246Z,0
2018-12-18T01:27:42.339Z,0
2018-12-18T01:28:44.458Z,0
2018-12-18T01:29:46.574Z,0
2018-12-18T01:30:48.698Z,0
2018-12-18T01:31:50.793Z,0
2018-12-18T01:32:52.919Z,0
2018-12-18T01:33:59.212Z,0
2018-12-18T01:35:01.542Z,0
2018-12-18T01:36:03.692Z,0
2018-12-18T01:37:05.795Z,0
2018-12-18T01:38:07.916Z,0
2018-12-18T01:39:10.041Z,0
2018-12-18T01:40:12.539Z,0
2018-12-18T01:41:14.702Z,0
2018-12-18T01:42:17.210Z,0
2018-12-18T01:43:19.591Z,0
2018-12-18T01:44:21.712Z,0
2018-12-18T01:45:23.829Z,0
2018-12-18T01:46:25.941Z,0
2018-12-18T01:47:28.332Z,0
2018-12-18T01:48:30.465Z,0
2018-12-18T01:49:32.571Z,0
2018-12-18T01:50:34.675Z,0
2018-12-18T01:51:36.805Z,0
2018-12-18T01:52:39.210Z,0
2018-12-18T01:53:41.335Z,0
2018-12-18T01:54:43.445Z,0
2018-12-18T01:55:45.573Z,0
2018-12-18T01:56:47.947Z,0
2018-12-18T01:57:50.071Z,0
2018-12-18T01:58:52.185Z,0
2018-12-18T01:59:54.290Z,0
2018-12-18T02:00:56.404Z,0
2018-12-18T02:01:58.535Z,0
2018-12-18T02:03:00.654Z,0
2018-12-18T02:04:05.834Z,0
2018-12-18T02:05:08.314Z,0
2018-12-18T02:06:10.434Z,0
2018-12-18T02:07:12.531Z,0
2018-12-18T02:08:14.639Z,0
2018-12-18T02:09:16.763Z,0
2018-12-18T02:10:18.866Z,0
2018-12-18T02:11:20.978Z,0
2018-12-18T02:12:23.107Z,0
2018-12-18T02:13:25.216Z,0
2018-12-18T02:14:27.328Z,0
2018-12-18T02:15:29.450Z,0
2018-12-18T02:16:31.560Z,0
2018-12-18T02:17:33.671Z,0
2018-12-18T02:18:35.792Z,0
2018-12-18T02:19:37.933Z,0
2018-12-18T02:20:40.035Z,0
2018-12-18T02:21:42.445Z,0
2018-12-18T02:22:44.612Z,0
2018-12-18T02:23:46.714Z,0
2018-12-18T02:24:48.834Z,0
2018-12-18T02:25:50.933Z,0
2018-12-18T02:26:53.053Z,0
2018-12-18T02:27:55.181Z,0
2018-12-18T02:28:57.303Z,0
2018-12-18T02:29:59.394Z,0
2018-12-18T02:31:01.523Z,0
2018-12-18T02:32:03.653Z,0
2018-12-18T02:33:05.754Z,0
2018-12-18T02:34:13.645Z,0
2018-12-18T02:35:16.388Z,0
2018-12-18T02:36:18.840Z,0
2018-12-18T02:37:21.250Z,0
2018-12-18T02:38:23.413Z,0
2018-12-18T02:39:25.517Z,0
2018-12-18T02:40:27.938Z,0
2018-12-18T02:41:30.072Z,0
2018-12-18T02:42:32.450Z,0
2018-12-18T02:43:34.589Z,0
2018-12-18T02:44:36.696Z,0
2018-12-18T02:45:38.806Z,0
2018-12-18T02:46:40.923Z,0
2018-12-18T02:47:43.058Z,0
2018-12-18T02:48:45.177Z,0
2018-12-18T02:49:47.309Z,0
2018-12-18T02:50:50.109Z,0
2018-12-18T02:51:52.262Z,0
2018-12-18T02:52:54.385Z,0
2018-12-18T02:53:56.513Z,0
2018-12-18T02:54:58.894Z,0
2018-12-18T02:56:01.015Z,0
2018-12-18T02:57:03.431Z,0
2018-12-18T02:58:05.540Z,0
2018-12-18T02:59:07.698Z,0
2018-12-18T03:00:10.104Z,0
2018-12-18T03:01:12.220Z,0
2018-12-18T03:02:14.624Z,0
2018-12-18T03:03:16.755Z,0
2018-12-18T03:04:21.549Z,0
2018-12-18T03:05:24.009Z,0
2018-12-18T03:06:26.164Z,0
2018-12-18T03:07:28.956Z,0
2018-12-18T03:08:31.089Z,0
2018-12-18T03:09:33.215Z,0
2018-12-18T03:10:35.353Z,0
2018-12-18T03:11:37.453Z,0
2018-12-18T03:12:39.577Z,0
2018-12-18T03:13:41.701Z,0
2018-12-18T03:14:43.812Z,0
2018-12-18T03:15:45.942Z,0
2018-12-18T03:16:48.326Z,0
2018-12-18T03:17:50.454Z,0
2018-12-18T03:18:52.940Z,0
2018-12-18T03:19:55.069Z,0
2018-12-18T03:20:57.208Z,0
2018-12-18T03:21:59.321Z,0
2018-12-18T03:23:01.487Z,0
2018-12-18T03:24:03.926Z,0
2018-12-18T03:25:06.973Z,0
2018-12-18T03:26:09.165Z,0
2018-12-18T03:27:11.676Z,0
2018-12-18T03:28:13.791Z,0
2018-12-18T03:29:15.911Z,0
2018-12-18T03:30:18.349Z,0
2018-12-18T03:31:21.354Z,0
2018-12-18T03:32:23.945Z,0
2018-12-18T03:33:27.079Z,0
2018-12-18T03:34:29.197Z,0
2018-12-18T03:35:31.301Z,0
2018-12-18T03:36:33.428Z,0
2018-12-18T03:37:35.544Z,0
2018-12-18T03:38:37.673Z,0
2018-12-18T03:39:40.095Z,0
2018-12-18T03:40:42.205Z,0
2018-12-18T03:41:44.331Z,0
2018-12-18T03:42:46.447Z,0
2018-12-18T03:43:48.565Z,0
2018-12-18T03:44:50.655Z,0
2018-12-18T03:45:53.123Z,0
2018-12-18T03:46:55.306Z,0
2018-12-18T03:47:57.434Z,0
2018-12-18T03:48:59.847Z,0
2018-12-18T03:50:01.946Z,0
2018-12-18T03:51:04.449Z,0
2018-12-18T03:52:06.577Z,0
2018-12-18T03:53:08.711Z,0
2018-12-18T03:54:10.826Z,0
2018-12-18T03:55:12.938Z,0
2018-12-18T03:56:15.117Z,0
2018-12-18T03:57:17.240Z,0
2018-12-18T03:58:19.351Z,0
2018-12-18T03:59:21.469Z,0
2018-12-18T04:00:23.600Z,0
2018-12-18T04:01:25.702Z,0
2018-12-18T04:02:27.816Z,0
2018-12-18T04:03:29.936Z,0
2018-12-18T04:04:35.437Z,0
2018-12-18T04:05:38.305Z,0
2018-12-18T04:06:40.421Z,0
2018-12-18T04:07:42.953Z,0
2018-12-18T04:08:45.082Z,0
2018-12-18T04:09:47.495Z,0
2018-12-18T04:10:49.891Z,0
2018-12-18T04:11:52.009Z,0
2018-12-18T04:12:54.730Z,0
2018-12-18T04:13:57.142Z,0
2018-12-18T04:14:59.559Z,0
2018-12-18T04:16:01.751Z,0
2018-12-18T04:17:04.153Z,0
2018-12-18T04:18:06.596Z,0
2018-12-18T04:19:08.724Z,0
2018-12-18T04:20:10.886Z,0
2018-12-18T04:21:13.330Z,0
2018-12-18T04:22:15.492Z,0
2018-12-18T04:23:17.613Z,0
2018-12-18T04:24:20.112Z,0
2018-12-18T04:25:22.241Z,0
2018-12-18T04:26:24.361Z,0
2018-12-18T04:27:27.168Z,0
2018-12-18T04:28:29.804Z,0
2018-12-18T04:29:32.617Z,0
2018-12-18T04:30:35.129Z,0
2018-12-18T04:31:37.261Z,0
2018-12-18T04:32:39.661Z,0
2018-12-18T04:33:41.787Z,0
2018-12-18T04:34:44.284Z,0
2018-12-18T04:35:46.796Z,0
2018-12-18T04:36:48.924Z,0
2018-12-18T04:37:51.034Z,0
2018-12-18T04:38:53.243Z,0
2018-12-18T04:39:55.364Z,0
2018-12-18T04:40:57.490Z,0
2018-12-18T04:41:59.611Z,0
2018-12-18T04:43:01.744Z,0
2018-12-18T04:44:04.162Z,0
2018-12-18T04:45:06.584Z,0
2018-12-18T04:46:09.288Z,0
2018-12-18T04:47:11.400Z,0
2018-12-18T04:48:13.535Z,0
2018-12-18T04:49:15.658Z,0
2018-12-18T04:50:17.775Z,0
2018-12-18T04:51:22.004Z,0
2018-12-18T04:52:24.836Z,0
2018-12-18T04:53:26.950Z,0
2018-12-18T04:54:29.071Z,0
2018-12-18T04:55:31.214Z,0
2018-12-18T04:56:33.611Z,0
2018-12-18T04:57:35.720Z,0
2018-12-18T04:58:37.858Z,0
2018-12-18T04:59:39.979Z,0
2018-12-18T05:00:42.090Z,0
2018-12-18T05:01:44.509Z,0
2018-12-18T05:02:46.646Z,0
2018-12-18T05:03:49.047Z,0
2018-12-18T05:04:51.452Z,0
2018-12-18T05:05:53.567Z,0
2018-12-18T05:06:55.982Z,0
2018-12-18T05:07:58.122Z,0
2018-12-18T05:09:00.244Z,0
2018-12-18T05:10:02.361Z,0
2018-12-18T05:11:05.077Z,0
2018-12-18T05:12:07.482Z,0
2018-12-18T05:13:09.989Z,0
2018-12-18T05:14:12.389Z,0
2018-12-18T05:15:14.791Z,0
2018-12-18T05:16:17.282Z,0
2018-12-18T05:17:19.411Z,0
2018-12-18T05:18:21.536Z,0
2018-12-18T05:19:23.640Z,0
2018-12-18T05:20:25.769Z,0
2018-12-18T05:21:28.275Z,0
2018-12-18T05:22:30.407Z,0
2018-12-18T05:23:32.797Z,0
2018-12-18T05:24:34.933Z,0
2018-12-18T05:25:37.067Z,0
2018-12-18T05:26:39.184Z,0
2018-12-18T05:27:41.365Z,0
2018-12-18T05:28:43.468Z,0
2018-12-18T05:29:46.270Z,0
2018-12-18T05:30:48.394Z,0
2018-12-18T05:31:50.511Z,0
2018-12-18T05:32:52.675Z,0
2018-12-18T05:33:55.118Z,0
2018-12-18T05:34:57.221Z,0
2018-12-18T05:35:59.353Z,0
2018-12-18T05:37:01.749Z,0
2018-12-18T05:38:03.871Z,0
2018-12-18T05:39:06.276Z,0
2018-12-18T05:40:08.692Z,0
2018-12-18T05:41:10.799Z,0
2018-12-18T05:42:12.912Z,0
2018-12-18T05:43:15.037Z,0
2018-12-18T05:44:17.133Z,0
2018-12-18T05:45:19.316Z,0
2018-12-18T05:46:21.705Z,0
2018-12-18T05:47:23.822Z,0
2018-12-18T05:48:25.937Z,0
2018-12-18T05:49:28.327Z,0
2018-12-18T05:50:31.973Z,0
2018-12-18T05:51:34.088Z,0
2018-12-18T05:52:36.193Z,0
2018-12-18T05:53:38.610Z,0
2018-12-18T05:54:40.714Z,0
2018-12-18T05:55:43.110Z,0
2018-12-18T05:56:45.226Z,0
2018-12-18T05:57:47.636Z,0
2018-12-18T05:58:50.023Z,0
2018-12-18T05:59:52.144Z,0
2018-12-18T06:00:54.264Z,0
2018-12-18T06:01:56.375Z,0
2018-12-18T06:02:58.495Z,0
2018-12-18T06:04:00.613Z,0
2018-12-18T06:05:03.262Z,0
2018-12-18T06:06:05.862Z,0
2018-12-18T06:07:07.997Z,0
2018-12-18T06:08:10.163Z,0
2018-12-18T06:09:12.294Z,0
2018-12-18T06:10:14.467Z,0
2018-12-18T06:11:16.580Z,0
2018-12-18T06:12:18.983Z,0
2018-12-18T06:13:21.102Z,0
2018-12-18T06:14:23.491Z,0
2018-12-18T06:15:25.620Z,0
2018-12-18T06:16:27.739Z,0
2018-12-18T06:17:29.846Z,0
2018-12-18T06:18:32.366Z,0
2018-12-18T06:19:34.473Z,0
2018-12-18T06:20:36.975Z,0
2018-12-18T06:21:39.072Z,0
2018-12-18T06:22:41.206Z,0
2018-12-18T06:23:43.317Z,0
2018-12-18T06:24:45.450Z,0
2018-12-18T06:25:47.572Z,0
2018-12-18T06:26:49.675Z,0
2018-12-18T06:27:51.802Z,0
2018-12-18T06:28:53.915Z,0
2018-12-18T06:29:56.037Z,0
2018-12-18T06:30:58.443Z,0
2018-12-18T06:32:01.235Z,0
2018-12-18T06:33:03.738Z,0
2018-12-18T06:34:05.866Z,0
2018-12-18T06:35:10.368Z,0
2018-12-18T06:36:12.708Z,0
2018-12-18T06:37:15.129Z,0
2018-12-18T06:38:17.268Z,0
2018-12-18T06:39:19.418Z,0
2018-12-18T06:40:21.522Z,0
2018-12-18T06:41:23.640Z,0
2018-12-18T06:42:25.749Z,0
2018-12-18T06:43:28.249Z,0
2018-12-18T06:44:30.659Z,0
2018-12-18T06:45:33.831Z,0
2018-12-18T06:46:35.931Z,0
2018-12-18T06:47:38.059Z,0
2018-12-18T06:48:40.209Z,0
2018-12-18T06:49:42.318Z,0
2018-12-18T06:50:44.443Z,0
2018-12-18T06:51:46.539Z,4
2018-12-18T06:52:48.654Z,4
2018-12-18T06:53:50.772Z,0
2018-12-18T06:54:52.908Z,0
2018-12-18T06:55:55.003Z,4
2018-12-18T06:56:57.132Z,4
2018-12-18T06:57:59.251Z,4
2018-12-18T06:59:01.360Z,4
2018-12-18T07:00:03.499Z,4
2018-12-18T07:01:05.602Z,4
2018-12-18T07:02:07.727Z,4
2018-12-18T07:03:09.836Z,8
2018-12-18T07:04:11.964Z,8
2018-12-18T07:05:16.814Z,12
2018-12-18T07:06:19.168Z,12
2018-12-18T07:07:21.277Z,12
2018-12-18T07:08:23.421Z,16
2018-12-18T07:09:25.522Z,20
2018-12-18T07:10:27.647Z,24
2018-12-18T07:11:29.775Z,28
2018-12-18T07:12:32.282Z,32
2018-12-18T07:13:34.394Z,40
2018-12-18T07:14:36.517Z,48
2018-12-18T07:15:38.624Z,64
2018-12-18T07:16:40.738Z,72
2018-12-18T07:17:42.865Z,80
2018-12-18T07:18:44.988Z,96
2018-12-18T07:19:47.104Z,104
2018-12-18T07:20:49.234Z,116
2018-12-18T07:21:51.340Z,136
2018-12-18T07:22:53.778Z,148
2018-12-18T07:23:55.926Z,164
2018-12-18T07:24:58.021Z,188
2018-12-18T07:26:00.143Z,208
2018-12-18T07:27:02.255Z,224
2018-12-18T07:28:04.665Z,232
2018-12-18T07:29:07.074Z,244
2018-12-18T07:30:09.533Z,240
2018-12-18T07:31:11.949Z,256
2018-12-18T07:32:14.058Z,268
2018-12-18T07:33:16.196Z,276
2018-12-18T07:34:18.303Z,304
2018-12-18T07:35:23.330Z,332
2018-12-18T07:36:25.610Z,360
2018-12-18T07:37:27.749Z,352
2018-12-18T07:38:30.416Z,368
2018-12-18T07:39:32.528Z,372
2018-12-18T07:40:34.652Z,352
2018-12-18T07:41:36.747Z,328
2018-12-18T07:42:38.877Z,344
2018-12-18T07:43:40.995Z,376
2018-12-18T07:44:43.094Z,404
2018-12-18T07:45:45.214Z,412
2018-12-18T07:46:47.338Z,428
2018-12-18T07:47:49.447Z,484
2018-12-18T07:48:51.845Z,488
2018-12-18T07:49:54.247Z,496
2018-12-18T07:50:56.351Z,516
2018-12-18T07:51:58.464Z,552
2018-12-18T07:53:00.883Z,588
2018-12-18T07:54:03.764Z,620
2018-12-18T07:55:05.890Z,644
2018-12-18T07:56:08.013Z,708
2018-12-18T07:57:10.118Z,680
2018-12-18T07:58:12.252Z,692
2018-12-18T07:59:14.357Z,716
2018-12-18T08:00:16.877Z,736
2018-12-18T08:01:18.987Z,896
2018-12-18T08:02:21.114Z,944
2018-12-18T08:03:23.221Z,1008
2018-12-18T08:04:25.340Z,1068
2018-12-18T08:05:29.934Z,1184
2018-12-18T08:06:32.180Z,1256
2018-12-18T08:07:34.321Z,1340
2018-12-18T08:08:36.726Z,1308
2018-12-18T08:09:38.846Z,1392
2018-12-18T08:10:42.378Z,1464
2018-12-18T08:11:44.515Z,1476
2018-12-18T08:12:47.319Z,1440
2018-12-18T08:13:49.444Z,1412
2018-12-18T08:14:51.582Z,1432
2018-12-18T08:15:53.686Z,1592
2018-12-18T08:16:55.808Z,1760
2018-12-18T08:17:57.929Z,1824
2018-12-18T08:19:00.328Z,1896
2018-12-18T08:20:02.822Z,2012
2018-12-18T08:21:04.942Z,2032
2018-12-18T08:22:07.086Z,1972
2018-12-18T08:23:09.199Z,2056
2018-12-18T08:24:11.309Z,2128
2018-12-18T08:25:13.432Z,2172
2018-12-18T08:26:15.585Z,2272
2018-12-18T08:27:17.679Z,2360
2018-12-18T08:28:19.800Z,2424
2018-12-18T08:29:21.912Z,2560
2018-12-18T08:30:24.016Z,2716
2018-12-18T08:31:26.147Z,2896
2018-12-18T08:32:28.830Z,3136
2018-12-18T08:33:31.333Z,3256
2018-12-18T08:34:33.457Z,3560
2018-12-18T08:35:36.491Z,3656
2018-12-18T08:36:38.802Z,4068
2018-12-18T08:37:40.922Z,4528
2018-12-18T08:38:43.061Z,5072
2018-12-18T08:39:45.577Z,6092
2018-12-18T08:40:47.714Z,7700
2018-12-18T08:41:49.825Z,8172
2018-12-18T08:42:51.952Z,9528
2018-12-18T08:43:54.448Z,9136
2018-12-18T08:44:56.570Z,9176
2018-12-18T08:45:58.719Z,10324
2018-12-18T08:47:00.833Z,9928
2018-12-18T08:48:02.982Z,9176
2018-12-18T08:49:05.085Z,8260
2018-12-18T08:50:07.210Z,7556
2018-12-18T08:51:09.629Z,6416
2018-12-18T08:52:11.750Z,6116
2018-12-18T08:53:13.846Z,5728
2018-12-18T08:54:16.260Z,5992
2018-12-18T08:55:18.367Z,7532
2018-12-18T08:56:20.481Z,9620
2018-12-18T08:57:23.175Z,9708
2018-12-18T08:58:25.289Z,9188
2018-12-18T08:59:27.411Z,8404
2018-12-18T09:00:29.528Z,6840
2018-12-18T09:01:31.649Z,6676
2018-12-18T09:02:33.768Z,6892
2018-12-18T09:03:36.259Z,7240
2018-12-18T09:04:38.390Z,7392
2018-12-18T09:05:43.248Z,7684
2018-12-18T09:06:45.536Z,7456
2018-12-18T09:07:47.642Z,6792
2018-12-18T09:08:49.770Z,6108
2018-12-18T09:09:51.876Z,5896
2018-12-18T09:10:54.288Z,5924
2018-12-18T09:11:56.711Z,6124
2018-12-18T09:12:59.095Z,6568
2018-12-18T09:14:01.289Z,6716
2018-12-18T09:15:03.430Z,6816
2018-12-18T09:16:05.944Z,6768
2018-12-18T09:17:08.040Z,6908
2018-12-18T09:18:10.170Z,7124
2018-12-18T09:19:12.285Z,7184
2018-12-18T09:20:14.392Z,7104
2018-12-18T09:21:16.807Z,7332
2018-12-18T09:22:18.912Z,7584
2018-12-18T09:23:21.035Z,7956
2018-12-18T09:24:23.833Z,8156
2018-12-18T09:25:25.949Z,7976
2018-12-18T09:26:28.056Z,8340
2018-12-18T09:27:30.179Z,8376
2018-12-18T09:28:32.296Z,8476
2018-12-18T09:29:34.416Z,9468
2018-12-18T09:30:42.354Z,9948
2018-12-18T09:31:44.915Z,8464
2018-12-18T09:32:47.025Z,8396
2018-12-18T09:33:49.156Z,8612
2018-12-18T09:34:51.267Z,9416
2018-12-18T09:35:53.391Z,9072
2018-12-18T09:36:55.513Z,9372
2018-12-18T09:37:58.044Z,9752
2018-12-18T09:39:00.540Z,7816
2018-12-18T09:40:02.943Z,7680
2018-12-18T09:41:05.047Z,8428
2018-12-18T09:42:07.174Z,9792
2018-12-18T09:43:09.559Z,8948
2018-12-18T09:44:11.675Z,8992
2018-12-18T09:45:13.813Z,8440
2018-12-18T09:46:16.210Z,7620
2018-12-18T09:47:18.342Z,7072
2018-12-18T09:48:20.457Z,6652
2018-12-18T09:49:22.888Z,8416
2018-12-18T09:50:24.989Z,9516
2018-12-18T09:51:27.116Z,8728
2018-12-18T09:52:29.229Z,8120
2018-12-18T09:53:31.340Z,7788
2018-12-18T09:54:33.487Z,7932
2018-12-18T09:55:35.585Z,7832
2018-12-18T09:56:37.707Z,7304
2018-12-18T09:57:39.829Z,7860
2018-12-18T09:58:41.949Z,7772
2018-12-18T09:59:44.057Z,8872
2018-12-18T10:00:46.180Z,8192
2018-12-18T10:01:48.282Z,7904
2018-12-18T10:02:50.702Z,8044
2018-12-18T10:03:53.434Z,8544
2018-12-18T10:04:55.552Z,7736
2018-12-18T10:05:57.945Z,8120
2018-12-18T10:07:00.103Z,8112
2018-12-18T10:08:02.217Z,7740
2018-12-18T10:09:09.554Z,8072
2018-12-18T10:10:12.241Z,7760
2018-12-18T10:11:14.353Z,6064
2018-12-18T10:12:16.884Z,6932
2018-12-18T10:13:19.009Z,6984
2018-12-18T10:14:21.140Z,6032
2018-12-18T10:15:23.257Z,5472
2018-12-18T10:16:25.779Z,5512
2018-12-18T10:17:27.898Z,5820
2018-12-18T10:18:30.013Z,6392
2018-12-18T10:19:32.146Z,6768
2018-12-18T10:20:34.249Z,7164
2018-12-18T10:21:36.363Z,7628
2018-12-18T10:22:38.474Z,7708
2018-12-18T10:23:40.996Z,6616
2018-12-18T10:24:43.102Z,6028
2018-12-18T10:25:45.228Z,5704
2018-12-18T10:26:48.039Z,5376
2018-12-18T10:27:50.142Z,5336
2018-12-18T10:28:52.273Z,5000
2018-12-18T10:29:54.390Z,5452
2018-12-18T10:30:56.497Z,5820
2018-12-18T10:31:58.625Z,6924
2018-12-18T10:33:00.746Z,6852
2018-12-18T10:34:02.858Z,6752
2018-12-18T10:35:04.983Z,5736
2018-12-18T10:36:07.107Z,6664
2018-12-18T10:37:09.804Z,6356
2018-12-18T10:38:11.929Z,5120
2018-12-18T10:39:14.339Z,4780
2018-12-18T10:40:16.745Z,4868
2018-12-18T10:41:18.871Z,4924
2018-12-18T10:42:21.000Z,4812
2018-12-18T10:43:23.109Z,4664
2018-12-18T10:44:25.254Z,4988
2018-12-18T10:45:27.376Z,5344
2018-12-18T10:46:29.493Z,5428
2018-12-18T10:47:31.605Z,5708
2018-12-18T10:48:33.748Z,6136
2018-12-18T10:49:35.854Z,5744
2018-12-18T10:50:38.264Z,6064
2018-12-18T10:51:40.403Z,5924
2018-12-18T10:52:42.528Z,5820
2018-12-18T10:53:44.635Z,6552
2018-12-18T10:54:46.752Z,7764
2018-12-18T10:55:48.880Z,9060
2018-12-18T10:56:51.032Z,9576
2018-12-18T10:57:53.139Z,9636
2018-12-18T10:58:55.265Z,8944
2018-12-18T10:59:57.386Z,8212
2018-12-18T11:00:59.488Z,8280
2018-12-18T11:02:02.004Z,7856
2018-12-18T11:03:04.132Z,7644
2018-12-18T11:04:06.234Z,7432
2018-12-18T11:05:08.360Z,7280
2018-12-18T11:06:10.492Z,6892
2018-12-18T11:07:12.609Z,7356
2018-12-18T11:08:14.768Z,7860
2018-12-18T11:09:16.885Z,7764
2018-12-18T11:10:19.274Z,7368
2018-12-18T11:11:21.381Z,6984
2018-12-18T11:12:23.816Z,6876
2018-12-18T11:13:26.221Z,6856
2018-12-18T11:14:28.744Z,7244
2018-12-18T11:15:30.863Z,7784
2018-12-18T11:16:37.207Z,7740
2018-12-18T11:17:39.657Z,7296
2018-12-18T11:18:41.776Z,7084
2018-12-18T11:19:43.898Z,6608
2018-12-18T11:20:46.311Z,6124
2018-12-18T11:21:48.444Z,6052
2018-12-18T11:22:50.559Z,6156
2018-12-18T11:23:52.680Z,5836
2018-12-18T11:24:54.804Z,5372
2018-12-18T11:25:56.917Z,6132
2018-12-18T11:26:59.041Z,6512
2018-12-18T11:28:01.533Z,7532
2018-12-18T11:29:03.971Z,8536
2018-12-18T11:30:06.079Z,9232
2018-12-18T11:31:08.526Z,9644
2018-12-18T11:32:10.646Z,10348
2018-12-18T11:33:12.774Z,10440
2018-12-18T11:34:14.879Z,10420
2018-12-18T11:35:17.007Z,9640
2018-12-18T11:36:19.403Z,9268
2018-12-18T11:37:21.510Z,9884
2018-12-18T11:38:23.629Z,10060
2018-12-18T11:39:25.756Z,10440
2018-12-18T11:40:27.874Z,17280
2018-12-18T11:41:29.997Z,12288
2018-12-18T11:42:32.115Z,12328
2018-12-18T11:43:34.608Z,14496
2018-12-18T11:44:36.728Z,11980
2018-12-18T11:45:38.854Z,11756
2018-12-18T11:46:40.963Z,12236
2018-12-18T11:47:43.785Z,12364
2018-12-18T11:48:45.916Z,12536
2018-12-18T11:49:48.018Z,11660
2018-12-18T11:50:50.156Z,11540
2018-12-18T11:51:52.550Z,11088
2018-12-18T11:52:54.660Z,10712
2018-12-18T11:53:56.773Z,11308
2018-12-18T11:54:58.916Z,11732
2018-12-18T11:56:01.028Z,12268
2018-12-18T11:57:03.150Z,12960
2018-12-18T11:58:05.282Z,13452
2018-12-18T11:59:07.392Z,13372
2018-12-18T12:00:10.096Z,13016
2018-12-18T12:01:12.214Z,11536
2018-12-18T12:02:14.387Z,10364
2018-12-18T12:03:16.463Z,10116
2018-12-18T12:04:18.605Z,9480
2018-12-18T12:05:20.685Z,8416
2018-12-18T12:06:23.085Z,7796
2018-12-18T12:07:25.393Z,7392
2018-12-18T12:08:27.474Z,9280
2018-12-18T12:09:29.556Z,12896
2018-12-18T12:10:32.021Z,12572
2018-12-18T12:11:34.135Z,12824
2018-12-18T12:12:36.236Z,12736
2018-12-18T12:13:38.318Z,11220
2018-12-18T12:14:40.408Z,9616
2018-12-18T12:15:42.494Z,8392
2018-12-18T12:16:44.560Z,6812
2018-12-18T12:17:46.640Z,5864
2018-12-18T12:18:49.012Z,5916
2018-12-18T12:19:51.362Z,6036
2018-12-18T12:20:53.446Z,5460
2018-12-18T12:21:55.630Z,4316
2018-12-18T12:22:57.700Z,3664
2018-12-18T12:23:59.886Z,4876
2018-12-18T12:25:01.972Z,4992
2018-12-18T12:26:04.066Z,3760
2018-12-18T12:27:06.132Z,3064
2018-12-18T12:28:08.233Z,3092
2018-12-18T12:29:10.333Z,3272
2018-12-18T12:30:12.411Z,3324
2018-12-18T12:31:14.505Z,3496
2018-12-18T12:32:16.579Z,3668
2018-12-18T12:33:18.671Z,3452
2018-12-18T12:34:21.063Z,3744
2018-12-18T12:35:23.151Z,3668
2018-12-18T12:36:29.545Z,3420
2018-12-18T12:37:32.248Z,3004
2018-12-18T12:38:34.921Z,3068
2018-12-18T12:39:37.002Z,3104
2018-12-18T12:40:39.108Z,3204
2018-12-18T12:41:41.189Z,3144
2018-12-18T12:42:43.557Z,3300
2018-12-18T12:43:45.647Z,2792
2018-12-18T12:44:47.719Z,2628
2018-12-18T12:45:49.789Z,2920
2018-12-18T12:46:51.880Z,3460
2018-12-18T12:47:54.244Z,4144
2018-12-18T12:48:56.341Z,4476
2018-12-18T12:49:58.438Z,4232
2018-12-18T12:51:00.528Z,4384
2018-12-18T12:52:02.612Z,3608
2018-12-18T12:53:05.009Z,3356
2018-12-18T12:54:07.092Z,3144
2018-12-18T12:55:09.175Z,2996
2018-12-18T12:56:11.280Z,3692
2018-12-18T12:57:13.344Z,3636
2018-12-18T12:58:15.440Z,3196
2018-12-18T12:59:17.528Z,3120
2018-12-18T13:00:19.615Z,2808
2018-12-18T13:01:21.683Z,2924
2018-12-18T13:02:23.783Z,3228
2018-12-18T13:03:25.966Z,2460
2018-12-18T13:04:28.039Z,2040
2018-12-18T13:05:30.157Z,1988
2018-12-18T13:06:36.315Z,2024
2018-12-18T13:07:38.963Z,2120
2018-12-18T13:08:41.041Z,2320
2018-12-18T13:09:43.156Z,2464
2018-12-18T13:10:45.513Z,2248
2018-12-18T13:11:47.888Z,2148
2018-12-18T13:12:49.984Z,2368
2018-12-18T13:13:52.332Z,2024
2018-12-18T13:14:54.433Z,1972
2018-12-18T13:15:56.806Z,1808
2018-12-18T13:16:59.168Z,1744
2018-12-18T13:18:01.324Z,1860
2018-12-18T13:19:03.714Z,1796
2018-12-18T13:20:05.812Z,1964
2018-12-18T13:21:08.203Z,1980
2018-12-18T13:22:10.286Z,1900
2018-12-18T13:23:12.357Z,2268
2018-12-18T13:24:14.446Z,2172
2018-12-18T13:25:16.533Z,2040
2018-12-18T13:26:18.639Z,2200
2018-12-18T13:27:21.117Z,1864
2018-12-18T13:28:23.198Z,1988
2018-12-18T13:29:25.300Z,1952
2018-12-18T13:30:27.392Z,2156
2018-12-18T13:31:29.484Z,2452
2018-12-18T13:32:31.572Z,2328
2018-12-18T13:33:33.847Z,1988
2018-12-18T13:34:36.391Z,1824
2018-12-18T13:35:38.496Z,2116
2018-12-18T13:36:43.073Z,2316
2018-12-18T13:37:45.415Z,2476
2018-12-18T13:38:47.518Z,2104
2018-12-18T13:39:49.605Z,1720
2018-12-18T13:40:51.692Z,1724
2018-12-18T13:41:53.777Z,1652
2018-12-18T13:42:55.873Z,1764
2018-12-18T13:43:58.006Z,1852
2018-12-18T13:45:00.091Z,1880
2018-12-18T13:46:02.186Z,2112
2018-12-18T13:47:04.951Z,1740
2018-12-18T13:48:07.044Z,1220
2018-12-18T13:49:09.132Z,1412
2018-12-18T13:50:11.200Z,1424
2018-12-18T13:51:13.565Z,1384
2018-12-18T13:52:15.949Z,1316
2018-12-18T13:53:18.036Z,1088
2018-12-18T13:54:20.132Z,1092
2018-12-18T13:55:22.217Z,1268
2018-12-18T13:56:24.294Z,1588
2018-12-18T13:57:26.377Z,1536
2018-12-18T13:58:28.466Z,1548
2018-12-18T13:59:30.535Z,1580
2018-12-18T14:00:32.622Z,1336
2018-12-18T14:01:34.700Z,1172
2018-12-18T14:02:36.785Z,1252
2018-12-18T14:03:38.849Z,1280
2018-12-18T14:04:40.929Z,1116
2018-12-18T14:05:43.008Z,984
2018-12-18T14:06:49.556Z,896
2018-12-18T14:07:51.992Z,788
2018-12-18T14:08:54.094Z,820
2018-12-18T14:09:56.183Z,720
2018-12-18T14:10:58.255Z,592
2018-12-18T14:12:00.366Z,532
2018-12-18T14:13:02.817Z,504
2018-12-18T14:14:08.212Z,552
2018-12-18T14:15:10.288Z,592
2018-12-18T14:16:12.379Z,608
2018-12-18T14:17:14.454Z,560
2018-12-18T14:18:16.820Z,540
2018-12-18T14:19:19.304Z,524
2018-12-18T14:20:21.371Z,460
2018-12-18T14:21:23.850Z,508
2018-12-18T14:22:26.408Z,496
2018-12-18T14:23:30.916Z,468
2018-12-18T14:24:35.709Z,496
2018-12-18T14:25:42.761Z,428
2018-12-18T14:26:47.157Z,420
2018-12-18T14:27:55.054Z,372
2018-12-18T14:29:05.757Z,364
2018-12-18T14:30:14.560Z,340
2018-12-18T14:31:21.630Z,316
2018-12-18T14:32:31.546Z,324
2018-12-18T14:33:40.547Z,280
2018-12-18T14:34:49.727Z,256